sensor_id;sensor_type;location;lat;lon;timestamp;temperature;humidity
75819;DHT22;64453;51.944;9.796;2023-08-12T00:01:53;23.10;60.10
75819;DHT22;64453;51.944;9.796;2023-08-12T00:04:20;23.10;60.50
75819;DHT22;64453;51.944;9.796;2023-08-12T00:06:48;23.10;60.00
75819;DHT22;64453;51.944;9.796;2023-08-12T00:09:15;23.10;59.60
75819;DHT22;64453;51.944;9.796;2023-08-12T00:11:41;23.10;60.70
75819;DHT22;64453;51.944;9.796;2023-08-12T00:14:08;23.40;60.00
75819;DHT22;64453;51.944;9.796;2023-08-12T00:16:35;23.30;59.90
75819;DHT22;64453;51.944;9.796;2023-08-12T00:19:04;23.40;59.60
75819;DHT22;64453;51.944;9.796;2023-08-12T00:21:31;23.30;59.80
75819;DHT22;64453;51.944;9.796;2023-08-12T00:23:58;23.50;59.60
75819;DHT22;64453;51.944;9.796;2023-08-12T00:26:25;23.60;60.10
75819;DHT22;64453;51.944;9.796;2023-08-12T00:28:52;23.40;59.90
75819;DHT22;64453;51.944;9.796;2023-08-12T00:31:19;23.00;59.60
75819;DHT22;64453;51.944;9.796;2023-08-12T00:33:46;22.90;60.50
75819;DHT22;64453;51.944;9.796;2023-08-12T00:36:14;23.00;61.10
75819;DHT22;64453;51.944;9.796;2023-08-12T00:38:41;22.90;60.60
75819;DHT22;64453;51.944;9.796;2023-08-12T00:41:08;23.10;61.00
75819;DHT22;64453;51.944;9.796;2023-08-12T00:43:35;23.10;60.60
75819;DHT22;64453;51.944;9.796;2023-08-12T00:46:04;23.00;60.50
75819;DHT22;64453;51.944;9.796;2023-08-12T00:48:31;23.00;61.00
75819;DHT22;64453;51.944;9.796;2023-08-12T00:50:59;23.10;60.60
75819;DHT22;64453;51.944;9.796;2023-08-12T00:53:27;23.00;60.90
75819;DHT22;64453;51.944;9.796;2023-08-12T00:55:54;22.90;61.20
75819;DHT22;64453;51.944;9.796;2023-08-12T00:58:22;23.20;60.90
75819;DHT22;64453;51.944;9.796;2023-08-12T01:00:49;23.00;60.40
75819;DHT22;64453;51.944;9.796;2023-08-12T01:03:16;22.80;61.70
75819;DHT22;64453;51.944;9.796;2023-08-12T01:05:43;22.70;61.90
75819;DHT22;64453;51.944;9.796;2023-08-12T01:08:11;23.10;60.90
75819;DHT22;64453;51.944;9.796;2023-08-12T01:10:46;23.20;60.80
75819;DHT22;64453;51.944;9.796;2023-08-12T01:13:23;23.20;60.50
75819;DHT22;64453;51.944;9.796;2023-08-12T01:15:58;23.30;60.70
75819;DHT22;64453;51.944;9.796;2023-08-12T01:18:26;23.40;60.40
75819;DHT22;64453;51.944;9.796;2023-08-12T01:20:54;23.50;60.00
75819;DHT22;64453;51.944;9.796;2023-08-12T01:23:23;23.20;61.00
75819;DHT22;64453;51.944;9.796;2023-08-12T01:25:50;23.00;61.30
75819;DHT22;64453;51.944;9.796;2023-08-12T01:28:17;22.90;61.20
75819;DHT22;64453;51.944;9.796;2023-08-12T01:30:49;23.10;61.20
75819;DHT22;64453;51.944;9.796;2023-08-12T01:33:21;23.10;61.50
75819;DHT22;64453;51.944;9.796;2023-08-12T01:36:00;23.10;61.40
75819;DHT22;64453;51.944;9.796;2023-08-12T01:38:33;22.90;61.70
75819;DHT22;64453;51.944;9.796;2023-08-12T01:41:00;23.30;62.10
75819;DHT22;64453;51.944;9.796;2023-08-12T01:43:28;23.10;61.30
75819;DHT22;64453;51.944;9.796;2023-08-12T01:45:55;23.20;61.20
75819;DHT22;64453;51.944;9.796;2023-08-12T01:48:22;23.10;61.50
75819;DHT22;64453;51.944;9.796;2023-08-12T01:50:49;23.10;61.90
75819;DHT22;64453;51.944;9.796;2023-08-12T01:53:16;23.10;61.90
75819;DHT22;64453;51.944;9.796;2023-08-12T01:55:44;23.10;62.30
75819;DHT22;64453;51.944;9.796;2023-08-12T01:58:12;23.10;62.70
75819;DHT22;64453;51.944;9.796;2023-08-12T02:00:39;23.10;61.90
75819;DHT22;64453;51.944;9.796;2023-08-12T02:03:06;23.40;61.70
75819;DHT22;64453;51.944;9.796;2023-08-12T02:05:33;23.40;61.60
75819;DHT22;64453;51.944;9.796;2023-08-12T02:08:00;23.30;62.00
75819;DHT22;64453;51.944;9.796;2023-08-12T02:10:27;23.20;62.40
75819;DHT22;64453;51.944;9.796;2023-08-12T02:12:55;23.40;62.10
75819;DHT22;64453;51.944;9.796;2023-08-12T02:15:22;24.00;60.20
75819;DHT22;64453;51.944;9.796;2023-08-12T02:17:49;24.50;58.50
75819;DHT22;64453;51.944;9.796;2023-08-12T02:20:16;24.80;58.10
75819;DHT22;64453;51.944;9.796;2023-08-12T02:22:44;24.90;57.20
75819;DHT22;64453;51.944;9.796;2023-08-12T02:25:11;25.30;56.80
75819;DHT22;64453;51.944;9.796;2023-08-12T02:27:38;25.60;56.20
75819;DHT22;64453;51.944;9.796;2023-08-12T02:30:07;25.50;55.70
75819;DHT22;64453;51.944;9.796;2023-08-12T02:32:36;25.20;55.90
75819;DHT22;64453;51.944;9.796;2023-08-12T02:35:03;25.40;56.30
75819;DHT22;64453;51.944;9.796;2023-08-12T02:37:30;25.70;55.80
75819;DHT22;64453;51.944;9.796;2023-08-12T02:39:57;25.70;55.70
75819;DHT22;64453;51.944;9.796;2023-08-12T02:42:24;25.30;57.30
75819;DHT22;64453;51.944;9.796;2023-08-12T02:44:51;25.10;57.10
75819;DHT22;64453;51.944;9.796;2023-08-12T02:47:20;25.20;56.60
75819;DHT22;64453;51.944;9.796;2023-08-12T02:49:46;25.20;57.30
75819;DHT22;64453;51.944;9.796;2023-08-12T02:52:14;25.70;56.90
75819;DHT22;64453;51.944;9.796;2023-08-12T02:54:41;25.20;57.30
75819;DHT22;64453;51.944;9.796;2023-08-12T02:57:08;25.40;57.40
75819;DHT22;64453;51.944;9.796;2023-08-12T02:59:35;25.50;56.70
75819;DHT22;64453;51.944;9.796;2023-08-12T03:02:02;25.30;57.10
75819;DHT22;64453;51.944;9.796;2023-08-12T03:04:30;25.60;56.90
75819;DHT22;64453;51.944;9.796;2023-08-12T03:06:57;26.00;56.20
75819;DHT22;64453;51.944;9.796;2023-08-12T03:09:24;26.00;55.90
75819;DHT22;64453;51.944;9.796;2023-08-12T03:11:51;26.10;55.70
75819;DHT22;64453;51.944;9.796;2023-08-12T03:14:18;25.90;56.10
75819;DHT22;64453;51.944;9.796;2023-08-12T03:16:45;25.60;56.10
75819;DHT22;64453;51.944;9.796;2023-08-12T03:19:12;25.30;56.80
75819;DHT22;64453;51.944;9.796;2023-08-12T03:21:40;25.00;57.70
75819;DHT22;64453;51.944;9.796;2023-08-12T03:24:07;25.10;57.30
75819;DHT22;64453;51.944;9.796;2023-08-12T03:26:34;25.40;57.40
75819;DHT22;64453;51.944;9.796;2023-08-12T03:29:01;25.30;56.90
75819;DHT22;64453;51.944;9.796;2023-08-12T03:31:28;25.70;57.10
75819;DHT22;64453;51.944;9.796;2023-08-12T03:33:55;26.00;56.50
75819;DHT22;64453;51.944;9.796;2023-08-12T03:36:22;26.10;55.90
75819;DHT22;64453;51.944;9.796;2023-08-12T03:38:50;26.20;55.70
75819;DHT22;64453;51.944;9.796;2023-08-12T03:41:17;26.30;55.80
75819;DHT22;64453;51.944;9.796;2023-08-12T03:43:44;25.80;56.60
75819;DHT22;64453;51.944;9.796;2023-08-12T03:46:11;26.10;56.60
75819;DHT22;64453;51.944;9.796;2023-08-12T03:48:38;26.30;56.60
75819;DHT22;64453;51.944;9.796;2023-08-12T03:51:05;26.30;56.10
75819;DHT22;64453;51.944;9.796;2023-08-12T03:53:32;26.30;55.70
75819;DHT22;64453;51.944;9.796;2023-08-12T03:56:00;26.60;55.90
75819;DHT22;64453;51.944;9.796;2023-08-12T03:58:27;26.60;55.40
75819;DHT22;64453;51.944;9.796;2023-08-12T04:00:54;26.60;55.60
75819;DHT22;64453;51.944;9.796;2023-08-12T04:03:21;26.60;55.30
75819;DHT22;64453;51.944;9.796;2023-08-12T04:05:48;26.50;55.20
75819;DHT22;64453;51.944;9.796;2023-08-12T04:08:18;26.50;55.40
75819;DHT22;64453;51.944;9.796;2023-08-12T04:10:46;26.70;55.50
75819;DHT22;64453;51.944;9.796;2023-08-12T04:13:15;26.60;55.30
75819;DHT22;64453;51.944;9.796;2023-08-12T04:15:42;26.60;55.50
75819;DHT22;64453;51.944;9.796;2023-08-12T04:18:09;26.40;54.80
75819;DHT22;64453;51.944;9.796;2023-08-12T04:20:37;26.10;56.00
75819;DHT22;64453;51.944;9.796;2023-08-12T04:23:05;26.40;56.10
75819;DHT22;64453;51.944;9.796;2023-08-12T04:25:32;26.50;55.80
75819;DHT22;64453;51.944;9.796;2023-08-12T04:27:59;26.60;55.80
75819;DHT22;64453;51.944;9.796;2023-08-12T04:30:27;26.60;56.20
75819;DHT22;64453;51.944;9.796;2023-08-12T04:32:54;26.60;56.20
75819;DHT22;64453;51.944;9.796;2023-08-12T04:35:21;26.60;56.40
75819;DHT22;64453;51.944;9.796;2023-08-12T04:37:48;26.60;56.30
75819;DHT22;64453;51.944;9.796;2023-08-12T04:40:15;26.50;56.40
75819;DHT22;64453;51.944;9.796;2023-08-12T04:42:42;26.10;57.60
75819;DHT22;64453;51.944;9.796;2023-08-12T04:45:09;26.50;57.00
75819;DHT22;64453;51.944;9.796;2023-08-12T04:47:38;26.20;56.50
75819;DHT22;64453;51.944;9.796;2023-08-12T04:50:05;26.30;57.30
75819;DHT22;64453;51.944;9.796;2023-08-12T04:52:33;26.40;57.40
75819;DHT22;64453;51.944;9.796;2023-08-12T04:55:00;26.50;57.50
75819;DHT22;64453;51.944;9.796;2023-08-12T04:57:27;26.50;57.40
75819;DHT22;64453;51.944;9.796;2023-08-12T04:59:54;26.30;57.80
75819;DHT22;64453;51.944;9.796;2023-08-12T05:02:21;26.50;58.00
75819;DHT22;64453;51.944;9.796;2023-08-12T05:04:50;26.50;57.80
75819;DHT22;64453;51.944;9.796;2023-08-12T05:07:17;26.60;57.70
75819;DHT22;64453;51.944;9.796;2023-08-12T05:09:44;26.60;57.60
75819;DHT22;64453;51.944;9.796;2023-08-12T05:12:12;26.20;57.70
75819;DHT22;64453;51.944;9.796;2023-08-12T05:14:40;26.20;58.10
75819;DHT22;64453;51.944;9.796;2023-08-12T05:17:07;26.00;58.80
75819;DHT22;64453;51.944;9.796;2023-08-12T05:19:34;26.20;58.70
75819;DHT22;64453;51.944;9.796;2023-08-12T05:22:02;26.10;58.70
75819;DHT22;64453;51.944;9.796;2023-08-12T05:24:29;26.10;58.90
75819;DHT22;64453;51.944;9.796;2023-08-12T05:26:56;26.40;58.90
75819;DHT22;64453;51.944;9.796;2023-08-12T05:29:24;26.10;58.80
75819;DHT22;64453;51.944;9.796;2023-08-12T05:31:51;26.10;59.60
75819;DHT22;64453;51.944;9.796;2023-08-12T05:34:18;26.30;59.10
75819;DHT22;64453;51.944;9.796;2023-08-12T05:36:45;26.10;59.00
75819;DHT22;64453;51.944;9.796;2023-08-12T05:39:13;26.00;59.00
75819;DHT22;64453;51.944;9.796;2023-08-12T05:41:40;26.10;59.10
75819;DHT22;64453;51.944;9.796;2023-08-12T05:44:07;26.00;59.50
75819;DHT22;64453;51.944;9.796;2023-08-12T05:46:34;26.20;59.40
75819;DHT22;64453;51.944;9.796;2023-08-12T05:49:01;26.50;59.10
75819;DHT22;64453;51.944;9.796;2023-08-12T05:51:28;26.60;58.90
75819;DHT22;64453;51.944;9.796;2023-08-12T05:53:55;26.60;59.00
75819;DHT22;64453;51.944;9.796;2023-08-12T05:56:23;26.70;58.90
75819;DHT22;64453;51.944;9.796;2023-08-12T05:58:50;26.70;58.60
75819;DHT22;64453;51.944;9.796;2023-08-12T06:01:17;26.70;58.10
75819;DHT22;64453;51.944;9.796;2023-08-12T06:03:45;26.60;58.40
75819;DHT22;64453;51.944;9.796;2023-08-12T06:06:12;26.70;58.20
75819;DHT22;64453;51.944;9.796;2023-08-12T06:08:39;26.70;58.60
75819;DHT22;64453;51.944;9.796;2023-08-12T06:11:06;26.30;58.80
75819;DHT22;64453;51.944;9.796;2023-08-12T06:13:35;26.60;58.70
75819;DHT22;64453;51.944;9.796;2023-08-12T06:16:01;26.50;58.50
75819;DHT22;64453;51.944;9.796;2023-08-12T06:18:30;26.50;58.60
75819;DHT22;64453;51.944;9.796;2023-08-12T06:20:57;26.50;58.70
75819;DHT22;64453;51.944;9.796;2023-08-12T06:23:24;26.60;58.50
75819;DHT22;64453;51.944;9.796;2023-08-12T06:25:51;26.60;58.70
75819;DHT22;64453;51.944;9.796;2023-08-12T06:28:18;26.80;59.00
75819;DHT22;64453;51.944;9.796;2023-08-12T06:30:46;26.90;59.10
75819;DHT22;64453;51.944;9.796;2023-08-12T06:33:14;26.80;59.20
75819;DHT22;64453;51.944;9.796;2023-08-12T06:35:41;26.80;59.70
75819;DHT22;64453;51.944;9.796;2023-08-12T06:38:08;26.90;59.30
75819;DHT22;64453;51.944;9.796;2023-08-12T06:40:38;26.80;60.00
75819;DHT22;64453;51.944;9.796;2023-08-12T06:43:05;26.90;59.30
75819;DHT22;64453;51.944;9.796;2023-08-12T06:45:33;26.90;59.10
75819;DHT22;64453;51.944;9.796;2023-08-12T06:48:02;26.50;59.30
75819;DHT22;64453;51.944;9.796;2023-08-12T06:50:29;26.60;59.30
75819;DHT22;64453;51.944;9.796;2023-08-12T06:52:58;26.70;59.50
75819;DHT22;64453;51.944;9.796;2023-08-12T06:55:25;26.80;59.40
75819;DHT22;64453;51.944;9.796;2023-08-12T06:57:52;26.90;59.20
75819;DHT22;64453;51.944;9.796;2023-08-12T07:00:20;27.10;59.20
75819;DHT22;64453;51.944;9.796;2023-08-12T07:02:47;27.10;59.10
75819;DHT22;64453;51.944;9.796;2023-08-12T07:05:15;27.10;58.90
75819;DHT22;64453;51.944;9.796;2023-08-12T07:07:43;27.20;59.10
75819;DHT22;64453;51.944;9.796;2023-08-12T07:10:10;27.20;58.90
75819;DHT22;64453;51.944;9.796;2023-08-12T07:12:37;27.30;58.70
75819;DHT22;64453;51.944;9.796;2023-08-12T07:15:05;27.30;58.50
75819;DHT22;64453;51.944;9.796;2023-08-12T07:17:32;27.30;58.90
75819;DHT22;64453;51.944;9.796;2023-08-12T07:19:59;27.30;58.80
75819;DHT22;64453;51.944;9.796;2023-08-12T07:22:29;27.40;58.70
75819;DHT22;64453;51.944;9.796;2023-08-12T07:24:56;27.30;58.80
75819;DHT22;64453;51.944;9.796;2023-08-12T07:27:25;27.40;58.80
75819;DHT22;64453;51.944;9.796;2023-08-12T07:29:52;27.40;58.80
75819;DHT22;64453;51.944;9.796;2023-08-12T07:32:19;27.40;58.90
75819;DHT22;64453;51.944;9.796;2023-08-12T07:34:46;27.40;58.90
75819;DHT22;64453;51.944;9.796;2023-08-12T07:37:13;27.40;58.80
75819;DHT22;64453;51.944;9.796;2023-08-12T07:39:41;27.50;58.50
75819;DHT22;64453;51.944;9.796;2023-08-12T07:42:08;27.50;58.30
75819;DHT22;64453;51.944;9.796;2023-08-12T07:44:35;27.40;58.20
75819;DHT22;64453;51.944;9.796;2023-08-12T07:47:02;27.50;57.60
75819;DHT22;64453;51.944;9.796;2023-08-12T07:49:29;27.50;58.00
75819;DHT22;64453;51.944;9.796;2023-08-12T07:51:56;27.40;57.90
75819;DHT22;64453;51.944;9.796;2023-08-12T07:54:23;27.50;57.60
75819;DHT22;64453;51.944;9.796;2023-08-12T07:56:52;27.40;57.90
75819;DHT22;64453;51.944;9.796;2023-08-12T07:59:19;27.50;57.60
75819;DHT22;64453;51.944;9.796;2023-08-12T08:01:46;27.40;57.60
75819;DHT22;64453;51.944;9.796;2023-08-12T08:04:13;27.40;57.60
75819;DHT22;64453;51.944;9.796;2023-08-12T08:06:40;27.40;57.60
75819;DHT22;64453;51.944;9.796;2023-08-12T08:09:07;27.40;58.00
75819;DHT22;64453;51.944;9.796;2023-08-12T08:11:34;27.40;58.00
75819;DHT22;64453;51.944;9.796;2023-08-12T08:14:02;27.30;58.20
75819;DHT22;64453;51.944;9.796;2023-08-12T08:16:29;27.20;58.20
75819;DHT22;64453;51.944;9.796;2023-08-12T08:18:56;27.20;58.90
75819;DHT22;64453;51.944;9.796;2023-08-12T08:21:23;27.30;58.20
75819;DHT22;64453;51.944;9.796;2023-08-12T08:23:50;27.40;57.50
75819;DHT22;64453;51.944;9.796;2023-08-12T08:26:17;27.50;57.40
75819;DHT22;64453;51.944;9.796;2023-08-12T08:28:44;27.40;56.90
75819;DHT22;64453;51.944;9.796;2023-08-12T08:31:12;27.40;57.50
75819;DHT22;64453;51.944;9.796;2023-08-12T08:33:40;27.30;58.20
75819;DHT22;64453;51.944;9.796;2023-08-12T08:36:07;27.30;58.60
75819;DHT22;64453;51.944;9.796;2023-08-12T08:38:34;27.30;58.50
75819;DHT22;64453;51.944;9.796;2023-08-12T08:41:02;27.30;58.40
75819;DHT22;64453;51.944;9.796;2023-08-12T08:43:33;27.30;58.10
75819;DHT22;64453;51.944;9.796;2023-08-12T08:46:02;27.40;58.30
75819;DHT22;64453;51.944;9.796;2023-08-12T08:48:31;27.40;58.60
75819;DHT22;64453;51.944;9.796;2023-08-12T08:51:00;27.50;59.10
75819;DHT22;64453;51.944;9.796;2023-08-12T08:53:28;27.60;59.10
75819;DHT22;64453;51.944;9.796;2023-08-12T08:55:55;27.70;58.80
75819;DHT22;64453;51.944;9.796;2023-08-12T08:58:22;27.80;58.20
75819;DHT22;64453;51.944;9.796;2023-08-12T09:00:49;27.80;58.80
75819;DHT22;64453;51.944;9.796;2023-08-12T09:03:17;27.80;58.30
75819;DHT22;64453;51.944;9.796;2023-08-12T09:05:45;27.80;58.10
75819;DHT22;64453;51.944;9.796;2023-08-12T09:08:13;27.90;58.20
75819;DHT22;64453;51.944;9.796;2023-08-12T09:10:42;28.00;58.20
75819;DHT22;64453;51.944;9.796;2023-08-12T09:13:09;28.10;57.70
75819;DHT22;64453;51.944;9.796;2023-08-12T09:15:36;28.10;57.50
75819;DHT22;64453;51.944;9.796;2023-08-12T09:18:05;28.10;57.60
75819;DHT22;64453;51.944;9.796;2023-08-12T09:20:32;28.20;57.40
75819;DHT22;64453;51.944;9.796;2023-08-12T09:23:02;28.30;57.30
75819;DHT22;64453;51.944;9.796;2023-08-12T09:25:29;28.20;57.60
75819;DHT22;64453;51.944;9.796;2023-08-12T09:27:59;28.30;57.60
75819;DHT22;64453;51.944;9.796;2023-08-12T09:30:28;28.30;58.30
75819;DHT22;64453;51.944;9.796;2023-08-12T09:33:00;28.30;58.50
75819;DHT22;64453;51.944;9.796;2023-08-12T09:35:33;28.40;58.10
75819;DHT22;64453;51.944;9.796;2023-08-12T09:38:03;28.40;58.50
75819;DHT22;64453;51.944;9.796;2023-08-12T09:40:32;28.50;58.80
75819;DHT22;64453;51.944;9.796;2023-08-12T09:43:00;28.50;58.70
75819;DHT22;64453;51.944;9.796;2023-08-12T09:45:27;28.50;58.10
75819;DHT22;64453;51.944;9.796;2023-08-12T09:47:54;28.50;57.80
75819;DHT22;64453;51.944;9.796;2023-08-12T09:50:22;28.40;57.40
75819;DHT22;64453;51.944;9.796;2023-08-12T09:52:50;28.40;56.90
75819;DHT22;64453;51.944;9.796;2023-08-12T09:55:21;28.40;56.90
75819;DHT22;64453;51.944;9.796;2023-08-12T09:57:52;28.40;57.40
75819;DHT22;64453;51.944;9.796;2023-08-12T10:00:21;28.50;57.40
75819;DHT22;64453;51.944;9.796;2023-08-12T10:02:50;28.40;57.40
75819;DHT22;64453;51.944;9.796;2023-08-12T10:05:22;28.30;57.70
75819;DHT22;64453;51.944;9.796;2023-08-12T10:07:52;28.30;58.80
75819;DHT22;64453;51.944;9.796;2023-08-12T10:10:21;28.40;58.90
75819;DHT22;64453;51.944;9.796;2023-08-12T10:12:49;28.40;58.80
75819;DHT22;64453;51.944;9.796;2023-08-12T10:15:16;28.50;58.50
75819;DHT22;64453;51.944;9.796;2023-08-12T10:17:44;28.50;58.50
75819;DHT22;64453;51.944;9.796;2023-08-12T10:20:13;28.60;58.60
75819;DHT22;64453;51.944;9.796;2023-08-12T10:22:43;28.60;59.20
75819;DHT22;64453;51.944;9.796;2023-08-12T10:25:13;28.50;59.00
75819;DHT22;64453;51.944;9.796;2023-08-12T10:27:42;28.50;59.20
75819;DHT22;64453;51.944;9.796;2023-08-12T10:30:10;28.60;59.40
75819;DHT22;64453;51.944;9.796;2023-08-12T10:32:38;28.70;59.30
75819;DHT22;64453;51.944;9.796;2023-08-12T10:35:06;28.70;59.30
75819;DHT22;64453;51.944;9.796;2023-08-12T10:37:34;28.80;59.10
75819;DHT22;64453;51.944;9.796;2023-08-12T10:40:03;28.90;59.30
75819;DHT22;64453;51.944;9.796;2023-08-12T10:42:45;28.70;58.20
75819;DHT22;64453;51.944;9.796;2023-08-12T10:45:15;28.80;58.60
75819;DHT22;64453;51.944;9.796;2023-08-12T10:47:48;28.90;58.70
75819;DHT22;64453;51.944;9.796;2023-08-12T10:50:19;28.80;58.70
75819;DHT22;64453;51.944;9.796;2023-08-12T10:52:48;29.00;59.20
75819;DHT22;64453;51.944;9.796;2023-08-12T10:55:19;28.90;59.80
75819;DHT22;64453;51.944;9.796;2023-08-12T10:57:51;29.10;58.90
75819;DHT22;64453;51.944;9.796;2023-08-12T11:00:23;29.20;58.60
75819;DHT22;64453;51.944;9.796;2023-08-12T11:02:52;29.20;57.90
75819;DHT22;64453;51.944;9.796;2023-08-12T11:05:20;29.30;58.40
75819;DHT22;64453;51.944;9.796;2023-08-12T11:07:48;29.30;58.20
75819;DHT22;64453;51.944;9.796;2023-08-12T11:10:22;29.30;57.30
75819;DHT22;64453;51.944;9.796;2023-08-12T11:12:55;28.90;58.10
75819;DHT22;64453;51.944;9.796;2023-08-12T11:15:33;29.10;57.90
75819;DHT22;64453;51.944;9.796;2023-08-12T11:18:03;28.90;58.20
75819;DHT22;64453;51.944;9.796;2023-08-12T11:20:31;29.10;58.30
75819;DHT22;64453;51.944;9.796;2023-08-12T11:23:00;29.20;57.50
75819;DHT22;64453;51.944;9.796;2023-08-12T11:25:29;29.30;57.50
75819;DHT22;64453;51.944;9.796;2023-08-12T11:27:58;29.30;56.30
75819;DHT22;64453;51.944;9.796;2023-08-12T11:30:25;29.20;56.60
75819;DHT22;64453;51.944;9.796;2023-08-12T11:32:54;29.20;57.50
75819;DHT22;64453;51.944;9.796;2023-08-12T11:35:22;29.20;57.40
75819;DHT22;64453;51.944;9.796;2023-08-12T11:37:51;29.40;57.80
75819;DHT22;64453;51.944;9.796;2023-08-12T11:40:21;29.70;57.10
75819;DHT22;64453;51.944;9.796;2023-08-12T11:42:51;29.70;57.10
75819;DHT22;64453;51.944;9.796;2023-08-12T11:45:22;29.80;56.60
75819;DHT22;64453;51.944;9.796;2023-08-12T11:47:50;29.90;56.30
75819;DHT22;64453;51.944;9.796;2023-08-12T11:50:20;29.90;56.20
75819;DHT22;64453;51.944;9.796;2023-08-12T11:52:48;30.00;56.20
75819;DHT22;64453;51.944;9.796;2023-08-12T11:55:16;30.00;56.10
75819;DHT22;64453;51.944;9.796;2023-08-12T11:57:43;29.80;55.80
75819;DHT22;64453;51.944;9.796;2023-08-12T12:00:12;29.90;56.00
75819;DHT22;64453;51.944;9.796;2023-08-12T12:02:50;30.00;56.10
75819;DHT22;64453;51.944;9.796;2023-08-12T12:05:20;29.50;55.70
75819;DHT22;64453;51.944;9.796;2023-08-12T12:07:48;29.60;56.00
75819;DHT22;64453;51.944;9.796;2023-08-12T12:10:18;29.90;56.30
75819;DHT22;64453;51.944;9.796;2023-08-12T12:12:46;29.90;56.00
75819;DHT22;64453;51.944;9.796;2023-08-12T12:15:13;30.10;56.20
75819;DHT22;64453;51.944;9.796;2023-08-12T12:17:45;30.20;56.20
75819;DHT22;64453;51.944;9.796;2023-08-12T12:20:12;30.30;56.60
75819;DHT22;64453;51.944;9.796;2023-08-12T12:22:41;30.20;55.70
75819;DHT22;64453;51.944;9.796;2023-08-12T12:25:11;30.40;55.00
75819;DHT22;64453;51.944;9.796;2023-08-12T12:27:39;30.30;55.30
75819;DHT22;64453;51.944;9.796;2023-08-12T12:30:08;30.20;55.30
75819;DHT22;64453;51.944;9.796;2023-08-12T12:32:36;29.80;56.30
75819;DHT22;64453;51.944;9.796;2023-08-12T12:35:06;30.00;56.70
75819;DHT22;64453;51.944;9.796;2023-08-12T12:37:34;30.20;55.30
75819;DHT22;64453;51.944;9.796;2023-08-12T12:40:01;30.30;55.10
75819;DHT22;64453;51.944;9.796;2023-08-12T12:42:28;30.40;55.70
75819;DHT22;64453;51.944;9.796;2023-08-12T12:44:55;30.40;54.70
75819;DHT22;64453;51.944;9.796;2023-08-12T12:47:22;30.50;54.10
75819;DHT22;64453;51.944;9.796;2023-08-12T12:49:49;30.50;54.20
75819;DHT22;64453;51.944;9.796;2023-08-12T12:52:17;30.40;54.70
75819;DHT22;64453;51.944;9.796;2023-08-12T12:54:44;30.40;55.00
75819;DHT22;64453;51.944;9.796;2023-08-12T12:57:11;30.40;54.30
75819;DHT22;64453;51.944;9.796;2023-08-12T12:59:38;30.50;54.80
75819;DHT22;64453;51.944;9.796;2023-08-12T13:02:05;30.60;55.40
75819;DHT22;64453;51.944;9.796;2023-08-12T13:04:33;30.80;54.60
75819;DHT22;64453;51.944;9.796;2023-08-12T13:07:00;30.80;54.50
75819;DHT22;64453;51.944;9.796;2023-08-12T13:09:28;30.80;54.40
75819;DHT22;64453;51.944;9.796;2023-08-12T13:11:56;30.50;54.00
75819;DHT22;64453;51.944;9.796;2023-08-12T13:14:23;30.10;54.20
75819;DHT22;64453;51.944;9.796;2023-08-12T13:16:50;29.60;55.70
75819;DHT22;64453;51.944;9.796;2023-08-12T13:19:17;29.60;55.90
75819;DHT22;64453;51.944;9.796;2023-08-12T13:21:44;29.60;56.50
75819;DHT22;64453;51.944;9.796;2023-08-12T13:24:11;29.70;56.40
75819;DHT22;64453;51.944;9.796;2023-08-12T13:26:40;29.60;56.00
75819;DHT22;64453;51.944;9.796;2023-08-12T13:29:07;29.50;56.20
75819;DHT22;64453;51.944;9.796;2023-08-12T13:31:34;29.50;56.10
75819;DHT22;64453;51.944;9.796;2023-08-12T13:34:01;29.40;55.80
75819;DHT22;64453;51.944;9.796;2023-08-12T13:36:28;29.40;55.60
75819;DHT22;64453;51.944;9.796;2023-08-12T13:38:56;29.50;55.40
75819;DHT22;64453;51.944;9.796;2023-08-12T13:41:23;29.70;55.50
75819;DHT22;64453;51.944;9.796;2023-08-12T13:43:51;30.10;54.10
75819;DHT22;64453;51.944;9.796;2023-08-12T13:46:18;30.30;53.20
75819;DHT22;64453;51.944;9.796;2023-08-12T13:48:45;30.40;53.00
75819;DHT22;64453;51.944;9.796;2023-08-12T13:51:11;30.70;52.80
75819;DHT22;64453;51.944;9.796;2023-08-12T13:53:38;30.80;51.90
75819;DHT22;64453;51.944;9.796;2023-08-12T13:56:05;30.90;52.30
75819;DHT22;64453;51.944;9.796;2023-08-12T13:58:32;31.10;51.90
75819;DHT22;64453;51.944;9.796;2023-08-12T14:01:00;31.20;51.10
75819;DHT22;64453;51.944;9.796;2023-08-12T14:03:28;31.10;51.20
75819;DHT22;64453;51.944;9.796;2023-08-12T14:05:56;31.00;51.70
75819;DHT22;64453;51.944;9.796;2023-08-12T14:08:23;30.90;51.80
75819;DHT22;64453;51.944;9.796;2023-08-12T14:10:50;30.70;52.40
75819;DHT22;64453;51.944;9.796;2023-08-12T14:13:17;30.60;52.70
75819;DHT22;64453;51.944;9.796;2023-08-12T14:15:44;30.60;53.20
75819;DHT22;64453;51.944;9.796;2023-08-12T14:18:12;30.70;52.30
75819;DHT22;64453;51.944;9.796;2023-08-12T14:20:39;30.60;52.30
75819;DHT22;64453;51.944;9.796;2023-08-12T14:23:06;30.30;53.60
75819;DHT22;64453;51.944;9.796;2023-08-12T14:25:34;30.20;53.80
75819;DHT22;64453;51.944;9.796;2023-08-12T14:28:01;30.30;54.00
75819;DHT22;64453;51.944;9.796;2023-08-12T14:30:28;30.10;54.40
75819;DHT22;64453;51.944;9.796;2023-08-12T14:32:55;30.00;54.90
75819;DHT22;64453;51.944;9.796;2023-08-12T14:35:24;30.40;54.00
75819;DHT22;64453;51.944;9.796;2023-08-12T14:37:51;30.60;53.80
75819;DHT22;64453;51.944;9.796;2023-08-12T14:40:18;30.90;53.30
75819;DHT22;64453;51.944;9.796;2023-08-12T14:42:46;30.30;54.30
75819;DHT22;64453;51.944;9.796;2023-08-12T14:45:13;30.00;55.10
75819;DHT22;64453;51.944;9.796;2023-08-12T14:47:40;30.10;55.30
75819;DHT22;64453;51.944;9.796;2023-08-12T14:50:08;30.50;53.80
75819;DHT22;64453;51.944;9.796;2023-08-12T14:52:36;30.50;53.60
75819;DHT22;64453;51.944;9.796;2023-08-12T14:55:04;30.60;53.00
75819;DHT22;64453;51.944;9.796;2023-08-12T14:57:31;30.60;52.40
75819;DHT22;64453;51.944;9.796;2023-08-12T14:59:58;30.40;53.30
75819;DHT22;64453;51.944;9.796;2023-08-12T15:02:25;30.60;52.80
75819;DHT22;64453;51.944;9.796;2023-08-12T15:04:53;31.00;52.30
75819;DHT22;64453;51.944;9.796;2023-08-12T15:07:20;31.50;52.50
75819;DHT22;64453;51.944;9.796;2023-08-12T15:09:48;31.80;51.90
75819;DHT22;64453;51.944;9.796;2023-08-12T15:12:17;31.90;50.70
75819;DHT22;64453;51.944;9.796;2023-08-12T15:14:44;32.00;49.60
75819;DHT22;64453;51.944;9.796;2023-08-12T15:17:11;31.70;49.20
75819;DHT22;64453;51.944;9.796;2023-08-12T15:19:38;31.50;49.20
75819;DHT22;64453;51.944;9.796;2023-08-12T15:22:04;31.20;50.10
75819;DHT22;64453;51.944;9.796;2023-08-12T15:24:32;31.10;49.80
75819;DHT22;64453;51.944;9.796;2023-08-12T15:27:00;31.10;50.70
75819;DHT22;64453;51.944;9.796;2023-08-12T15:29:27;31.50;50.70
75819;DHT22;64453;51.944;9.796;2023-08-12T15:31:54;31.50;51.10
75819;DHT22;64453;51.944;9.796;2023-08-12T15:34:21;31.90;49.10